Time;durP1;ratioP1;P1;durP2;ratioP2;P2;SDS_P1;SDS_P2;PMS_P1;PMS_P2;Temp;Humidity;BMP_temperature;BMP_pressure;BME280_temperature;BME280_humidity;BME280_pressure;Samples;Min_cycle;Max_cycle;Signal;HPM_P1;HPM_P2
2021/07/02 00:00:17;;;;;;;1.80;1.00;;;26.70;53.00;;;;;;4357000;32;20638;-38
2021/07/02 00:02:44;;;;;;;1.75;1.00;;;26.60;53.20;;;;;;4356496;32;20541;-38
2021/07/02 00:05:11;;;;;;;3.70;1.10;;;26.50;53.20;;;;;;4344275;32;20183;-37
2021/07/02 00:07:38;;;;;;;1.20;1.10;;;26.40;53.50;;;;;;4356887;32;20098;-38
2021/07/02 00:10:06;;;;;;;3.55;1.33;;;26.30;53.80;;;;;;4341666;33;20155;-37
2021/07/02 00:12:32;;;;;;;1.52;1.40;;;26.20;54.10;;;;;;4329067;33;20078;-38
2021/07/02 00:14:59;;;;;;;3.22;1.85;;;26.10;54.50;;;;;;4341777;33;20106;-38
2021/07/02 00:17:25;;;;;;;1.85;1.20;;;26.10;54.80;;;;;;4341825;33;20142;-37
2021/07/02 00:19:52;;;;;;;1.77;1.15;;;26.00;55.00;;;;;;4341900;33;20063;-38
2021/07/02 00:22:18;;;;;;;3.28;1.35;;;26.00;55.20;;;;;;4341502;33;20113;-38
2021/07/02 00:24:45;;;;;;;3.78;1.87;;;26.00;55.00;;;;;;4356417;32;20427;-38
2021/07/02 00:27:11;;;;;;;10.45;1.80;;;26.00;54.90;;;;;;4358724;32;20581;-47
2021/07/02 00:29:37;;;;;;;2.20;1.37;;;25.90;55.00;;;;;;4371335;32;20053;-39
2021/07/02 00:32:05;;;;;;;1.92;1.12;;;25.90;55.10;;;;;;4371567;32;20057;-38
2021/07/02 00:34:31;;;;;;;3.58;1.27;;;25.90;55.90;;;;;;4371247;32;20082;-36
2021/07/02 00:36:57;;;;;;;3.30;1.00;;;25.90;55.20;;;;;;4371454;32;20074;-37
2021/07/02 00:39:24;;;;;;;1.40;1.27;;;26.00;55.30;;;;;;4371182;32;20137;-37
2021/07/02 00:41:50;;;;;;;1.40;1.05;;;26.00;55.20;;;;;;4370996;32;20081;-37
2021/07/02 00:44:17;;;;;;;1.33;1.23;;;26.10;55.10;;;;;;4359057;32;20793;-37
2021/07/02 00:46:43;;;;;;;3.08;1.27;;;26.20;55.00;;;;;;4373627;32;20474;-38
2021/07/02 00:49:10;;;;;;;1.58;1.23;;;26.20;54.90;;;;;;4402923;32;20506;-38
2021/07/02 00:51:36;;;;;;;4.10;2.03;;;26.30;54.90;;;;;;4370620;32;20076;-37
2021/07/02 00:54:03;;;;;;;3.97;1.52;;;26.20;54.90;;;;;;4358256;32;20073;-37
2021/07/02 00:56:29;;;;;;;6.18;1.37;;;26.20;54.80;;;;;;4358703;32;20128;-38
2021/07/02 00:58:55;;;;;;;2.60;1.17;;;26.20;54.70;;;;;;4346320;32;20475;-38
2021/07/02 01:01:22;;;;;;;3.87;1.50;;;26.30;54.60;;;;;;4370901;32;20062;-38
2021/07/02 01:03:49;;;;;;;1.65;1.15;;;26.30;54.20;;;;;;4371011;32;20083;-38
2021/07/02 01:06:16;;;;;;;1.65;1.27;;;26.30;54.20;;;;;;4340390;33;20695;-38
2021/07/02 01:08:42;;;;;;;2.12;0.88;;;26.30;54.10;;;;;;4311323;33;20067;-38
2021/07/02 01:11:10;;;;;;;2.30;1.37;;;26.30;54.10;;;;;;4311544;33;20082;-38
2021/07/02 01:13:36;;;;;;;1.62;1.33;;;26.30;53.80;;;;;;4311584;33;20196;-38
2021/07/02 01:16:03;;;;;;;1.80;1.30;;;26.30;53.50;;;;;;4311262;33;20083;-37
2021/07/02 01:18:30;;;;;;;3.53;1.05;;;26.30;53.60;;;;;;4300012;33;20098;-38
2021/07/02 01:20:56;;;;;;;1.20;1.10;;;26.40;53.00;;;;;;4311635;33;20079;-38
2021/07/02 01:23:23;;;;;;;4.68;1.33;;;26.60;53.00;;;;;;4299268;33;20075;-39
2021/07/02 01:25:50;;;;;;;2.70;1.15;;;26.70;52.70;;;;;;4311438;33;20118;-38
2021/07/02 01:28:17;;;;;;;1.92;1.20;;;26.90;52.40;;;;;;4301901;33;20555;-38
2021/07/02 01:30:43;;;;;;;3.12;1.30;;;27.00;52.00;;;;;;4313839;33;20594;-38
2021/07/02 01:33:10;;;;;;;1.40;1.20;;;27.20;51.80;;;;;;4313823;33;20158;-38
2021/07/02 01:35:37;;;;;;;1.30;1.20;;;27.30;51.60;;;;;;4326344;33;20115;-38
2021/07/02 01:38:04;;;;;;;4.45;1.40;;;27.40;51.20;;;;;;4350206;32;20154;-38
2021/07/02 01:40:32;;;;;;;1.35;1.12;;;27.50;51.50;;;;;;4355585;32;20090;-38
2021/07/02 01:42:59;;;;;;;3.28;1.83;;;27.40;51.40;;;;;;4355572;32;20083;-37
2021/07/02 01:45:26;;;;;;;2.55;1.15;;;27.40;51.80;;;;;;4364821;32;20065;-38
2021/07/02 01:47:52;;;;;;;1.58;1.40;;;27.30;51.80;;;;;;4396684;32;20138;-38
2021/07/02 01:50:25;;;;;;;7.78;2.25;;;27.20;52.00;;;;;;4388178;32;20454;-38
2021/07/02 01:52:52;;;;;;;3.47;1.73;;;27.10;52.70;;;;;;4388081;32;20078;-38
2021/07/02 01:55:20;;;;;;;3.35;1.15;;;27.00;53.00;;;;;;4388192;32;20173;-38
2021/07/02 01:57:46;;;;;;;3.17;1.60;;;27.10;52.90;;;;;;4387700;32;20095;-38
2021/07/02 02:00:14;;;;;;;6.82;2.12;;;27.10;53.00;;;;;;4386159;32;20137;-37
2021/07/02 02:02:40;;;;;;;7.40;1.50;;;27.20;53.30;;;;;;4387474;32;20202;-37
2021/07/02 02:05:08;;;;;;;4.35;2.50;;;27.20;53.10;;;;;;4388836;32;20501;-37
2021/07/02 02:07:34;;;;;;;2.90;1.60;;;27.30;52.80;;;;;;4391074;32;20070;-35
2021/07/02 02:10:00;;;;;;;5.22;1.50;;;27.30;52.70;;;;;;4390027;32;20072;-37
2021/07/02 02:12:27;;;;;;;6.15;2.37;;;27.30;52.80;;;;;;4391206;32;20163;-38
2021/07/02 02:14:53;;;;;;;7.60;2.15;;;27.30;53.00;;;;;;4391299;32;20089;-37
2021/07/02 02:17:20;;;;;;;6.03;2.08;;;27.40;53.20;;;;;;4391152;32;20175;-39
2021/07/02 02:19:46;;;;;;;5.60;1.90;;;27.60;53.10;;;;;;4391036;32;20073;-39
2021/07/02 02:22:13;;;;;;;4.90;1.83;;;27.70;52.90;;;;;;4390718;32;20120;-36
2021/07/02 02:24:39;;;;;;;6.62;2.22;;;27.90;52.40;;;;;;4390775;32;20081;-39
2021/07/02 02:27:05;;;;;;;4.28;1.27;;;28.10;52.10;;;;;;4357716;32;20610;-37
2021/07/02 02:29:32;;;;;;;3.85;1.30;;;28.20;51.70;;;;;;4358834;32;20077;-37
2021/07/02 02:31:58;;;;;;;3.92;1.42;;;28.40;51.30;;;;;;4345709;32;20520;-38
2021/07/02 02:34:25;;;;;;;2.17;1.30;;;28.50;51.00;;;;;;4346024;32;20078;-38
2021/07/02 02:36:52;;;;;;;3.55;1.42;;;28.50;50.90;;;;;;4358407;32;20057;-37
2021/07/02 02:39:18;;;;;;;3.28;1.48;;;28.50;50.90;;;;;;4358756;32;20142;-38
2021/07/02 02:41:45;;;;;;;5.87;1.30;;;28.60;51.00;;;;;;4358260;32;20080;-38
2021/07/02 02:44:11;;;;;;;6.57;1.50;;;28.60;51.00;;;;;;4345510;32;20513;-37
2021/07/02 02:46:38;;;;;;;6.62;1.77;;;28.70;51.00;;;;;;4357559;32;20070;-37
2021/07/02 02:49:04;;;;;;;2.72;1.85;;;28.70;50.90;;;;;;4342829;33;20074;-37
2021/07/02 02:51:31;;;;;;;3.37;1.52;;;28.70;50.80;;;;;;4330401;33;20119;-38
2021/07/02 02:53:57;;;;;;;4.93;2.55;;;28.70;50.70;;;;;;4343061;33;20169;-38
2021/07/02 02:56:23;;;;;;;2.92;2.12;;;28.60;50.60;;;;;;4330556;33;20196;-38
2021/07/02 02:58:50;;;;;;;3.62;1.77;;;28.60;50.60;;;;;;4378603;32;20069;-38
2021/07/02 03:01:16;;;;;;;7.35;2.10;;;28.60;50.80;;;;;;4362678;32;20145;-38
2021/07/02 03:03:43;;;;;;;4.43;1.92;;;28.60;50.70;;;;;;4387440;32;20066;-39
2021/07/02 03:06:09;;;;;;;2.80;1.65;;;28.70;50.70;;;;;;4357231;32;20542;-37
2021/07/02 03:08:37;;;;;;;5.97;1.95;;;28.70;50.40;;;;;;4345885;32;20077;-37
2021/07/02 03:11:04;;;;;;;7.87;1.62;;;28.70;50.20;;;;;;4357152;32;20463;-37
2021/07/02 03:13:30;;;;;;;5.28;1.90;;;28.70;50.00;;;;;;4344648;32;20106;-38
2021/07/02 03:15:57;;;;;;;7.18;2.22;;;28.50;50.20;;;;;;4344810;32;20054;-37
2021/07/02 03:18:23;;;;;;;2.55;1.90;;;28.50;50.60;;;;;;4344711;32;20074;-37
2021/07/02 03:20:50;;;;;;;2.22;1.50;;;28.50;50.90;;;;;;4357508;32;20085;-37
2021/07/02 03:23:16;;;;;;;5.87;2.33;;;28.50;50.80;;;;;;4357034;32;20178;-38
2021/07/02 03:25:43;;;;;;;5.53;2.65;;;28.50;50.70;;;;;;4344848;32;20070;-38
2021/07/02 03:28:09;;;;;;;5.10;2.70;;;28.60;50.60;;;;;;4357314;32;20066;-36
2021/07/02 03:30:35;;;;;;;2.97;2.00;;;28.60;50.80;;;;;;4345001;32;20077;-38
2021/07/02 03:33:02;;;;;;;2.40;2.20;;;28.70;50.60;;;;;;4357053;32;20132;-37
2021/07/02 03:35:28;;;;;;;5.70;1.80;;;28.90;50.40;;;;;;4344651;32;20197;-38
2021/07/02 03:37:55;;;;;;;4.43;1.87;;;29.00;49.90;;;;;;4395896;32;20066;-37
2021/07/02 03:40:21;;;;;;;4.72;1.58;;;29.20;49.80;;;;;;4404718;32;20125;-38
2021/07/02 03:42:48;;;;;;;10.20;4.37;;;29.30;49.40;;;;;;4404466;32;20089;-37
2021/07/02 03:45:14;;;;;;;3.47;2.60;;;29.40;49.20;;;;;;4404285;32;20057;-37
2021/07/02 03:47:41;;;;;;;2.87;1.60;;;29.30;49.00;;;;;;4399079;32;20075;-38
2021/07/02 03:50:08;;;;;;;4.85;1.77;;;29.40;48.80;;;;;;4389720;32;20543;-38
2021/07/02 03:52:34;;;;;;;3.35;1.55;;;29.40;48.80;;;;;;4389449;32;20158;-39
2021/07/02 03:55:00;;;;;;;6.47;2.10;;;29.40;48.50;;;;;;4389109;32;20093;-38
2021/07/02 03:57:27;;;;;;;2.60;1.73;;;29.50;48.10;;;;;;4389050;32;20141;-38
2021/07/02 03:59:53;;;;;;;2.50;1.90;;;29.50;47.90;;;;;;4389213;32;20065;-38
2021/07/02 04:02:20;;;;;;;2.70;2.45;;;29.60;47.80;;;;;;4387718;32;20078;-38
2021/07/02 04:04:47;;;;;;;2.25;1.80;;;29.50;47.70;;;;;;4389256;32;20558;-36
2021/07/02 04:07:14;;;;;;;3.12;2.10;;;29.40;47.90;;;;;;4389135;32;20046;-37
2021/07/02 04:09:40;;;;;;;3.90;2.03;;;29.30;48.20;;;;;;4375342;32;20042;-38
2021/07/02 04:12:10;;;;;;;5.45;1.83;;;29.30;48.50;;;;;;4388119;32;20051;-38
2021/07/02 04:14:37;;;;;;;4.28;2.25;;;29.40;48.30;;;;;;4387192;32;20462;-39
2021/07/02 04:17:06;;;;;;;5.50;2.28;;;29.40;48.20;;;;;;4387444;32;20073;-37
2021/07/02 04:19:32;;;;;;;2.58;1.80;;;29.40;48.20;;;;;;4387552;32;20090;-37
2021/07/02 04:21:59;;;;;;;2.15;2.05;;;29.50;48.20;;;;;;4387400;32;20069;-37
2021/07/02 04:24:27;;;;;;;2.30;2.10;;;29.60;47.80;;;;;;4389314;32;20501;-38
2021/07/02 04:26:54;;;;;;;4.75;2.53;;;29.60;47.50;;;;;;4388610;32;20058;-38
2021/07/02 04:29:20;;;;;;;4.93;2.42;;;29.60;47.20;;;;;;4388273;32;20069;-38
2021/07/02 04:31:47;;;;;;;2.65;2.42;;;29.60;47.30;;;;;;4388466;32;20061;-39
2021/07/02 04:34:13;;;;;;;5.60;2.42;;;29.60;47.00;;;;;;4388575;32;20071;-36
2021/07/02 04:36:40;;;;;;;2.80;2.35;;;29.60;46.90;;;;;;4387553;32;20128;-38
2021/07/02 04:39:06;;;;;;;2.90;2.10;;;29.60;46.90;;;;;;4388613;32;20161;-38
2021/07/02 04:41:32;;;;;;;4.65;3.47;;;29.60;47.20;;;;;;4355949;32;20581;-37
2021/07/02 04:43:59;;;;;;;2.95;2.08;;;29.70;47.30;;;;;;4343735;32;20078;-37
2021/07/02 04:46:25;;;;;;;5.40;2.30;;;29.80;46.80;;;;;;4356027;32;20073;-38
2021/07/02 04:48:52;;;;;;;3.53;1.90;;;30.00;46.60;;;;;;4356065;32;20148;-38
2021/07/02 04:51:18;;;;;;;3.15;1.98;;;30.00;46.80;;;;;;4370210;32;20175;-38
2021/07/02 04:53:45;;;;;;;1.95;1.75;;;30.00;46.10;;;;;;4370950;32;20066;-37
2021/07/02 04:56:12;;;;;;;2.47;2.28;;;29.90;46.00;;;;;;4370995;32;20077;-38
2021/07/02 04:58:43;;;;;;;5.05;2.40;;;29.80;46.10;;;;;;4358823;32;20077;-38
2021/07/02 05:01:13;;;;;;;4.72;2.25;;;29.70;46.50;;;;;;4358313;32;20062;-38
2021/07/02 05:03:39;;;;;;;2.47;2.10;;;29.80;46.40;;;;;;4358364;32;20150;-38
2021/07/02 05:06:06;;;;;;;4.00;2.25;;;29.90;46.20;;;;;;4370504;32;20146;-37
2021/07/02 05:08:33;;;;;;;2.10;2.00;;;30.00;46.40;;;;;;4370352;32;20471;-37
2021/07/02 05:10:59;;;;;;;5.25;1.85;;;30.10;46.00;;;;;;4370572;32;20062;-37
2021/07/02 05:13:25;;;;;;;2.70;1.67;;;30.10;46.00;;;;;;4370905;32;20073;-39
2021/07/02 05:15:52;;;;;;;1.77;1.67;;;30.20;45.50;;;;;;4360508;32;20073;-38
2021/07/02 05:18:20;;;;;;;4.45;1.73;;;30.30;45.30;;;;;;4385864;32;20069;-38
2021/07/02 05:20:46;;;;;;;4.82;1.90;;;30.50;45.10;;;;;;4385764;32;20147;-37
2021/07/02 05:23:13;;;;;;;2.55;2.33;;;30.60;44.50;;;;;;4385549;32;20156;-37
2021/07/02 05:25:39;;;;;;;2.67;1.65;;;30.60;44.40;;;;;;4385342;32;20177;-37
2021/07/02 05:28:06;;;;;;;4.12;1.65;;;30.70;44.50;;;;;;4377013;32;20081;-38
2021/07/02 05:30:33;;;;;;;2.92;1.95;;;30.70;44.50;;;;;;4402924;32;20081;-37
2021/07/02 05:32:59;;;;;;;3.72;2.95;;;30.60;44.00;;;;;;4403052;32;20148;-38
2021/07/02 05:35:25;;;;;;;4.15;3.17;;;30.60;44.50;;;;;;4402963;32;20071;-38
2021/07/02 05:37:52;;;;;;;3.62;2.75;;;30.50;44.80;;;;;;4402877;32;20066;-37
2021/07/02 05:40:19;;;;;;;3.10;1.80;;;30.50;44.80;;;;;;4402862;32;20057;-37
2021/07/02 05:42:46;;;;;;;5.20;2.70;;;30.50;44.70;;;;;;4403020;32;20080;-38
2021/07/02 05:45:12;;;;;;;3.60;3.30;;;30.40;45.10;;;;;;4389098;32;20437;-38
2021/07/02 05:47:47;;;;;;;4.72;1.90;;;30.30;45.20;;;;;;4383976;32;20066;-38
2021/07/02 05:50:14;;;;;;;2.47;2.28;;;30.40;45.50;;;;;;4387810;32;20513;-38
2021/07/02 05:52:40;;;;;;;2.28;1.67;;;30.40;45.30;;;;;;4373544;32;20069;-38
2021/07/02 05:55:07;;;;;;;3.30;2.22;;;30.50;44.80;;;;;;4373856;32;20085;-38
2021/07/02 05:57:34;;;;;;;3.60;2.15;;;30.50;44.60;;;;;;4373434;32;20062;-38
2021/07/02 06:00:00;;;;;;;3.10;1.40;;;30.30;44.30;;;;;;4387730;32;20093;-38
2021/07/02 06:02:26;;;;;;;2.70;1.50;;;30.20;44.00;;;;;;4387877;32;20108;-39
2021/07/02 06:04:53;;;;;;;3.17;1.85;;;30.00;44.50;;;;;;4387281;32;20064;-40
2021/07/02 06:07:19;;;;;;;1.77;1.20;;;29.90;45.30;;;;;;4373880;32;20069;-36
2021/07/02 06:09:46;;;;;;;2.65;1.30;;;30.00;45.20;;;;;;4387658;32;20151;-36
2021/07/02 06:12:12;;;;;;;4.05;1.10;;;30.00;45.00;;;;;;4387930;32;20116;-37
2021/07/02 06:14:39;;;;;;;2.42;0.95;;;30.10;44.50;;;;;;4387722;32;20169;-38
2021/07/02 06:17:05;;;;;;;1.65;1.30;;;30.20;43.40;;;;;;4373896;32;20062;-38
2021/07/02 06:19:32;;;;;;;3.62;1.00;;;30.40;43.50;;;;;;4387346;32;20144;-38
2021/07/02 06:21:58;;;;;;;1.30;0.90;;;30.70;42.90;;;;;;4373525;32;20074;-38
2021/07/02 06:24:25;;;;;;;4.85;1.85;;;31.00;41.10;;;;;;4387928;32;20117;-38
2021/07/02 06:26:51;;;;;;;1.33;0.80;;;31.20;40.40;;;;;;4387635;32;20070;-38
2021/07/02 06:29:17;;;;;;;3.17;0.80;;;31.30;41.20;;;;;;4387991;32;20151;-38
2021/07/02 06:31:44;;;;;;;1.67;0.70;;;31.50;40.20;;;;;;4387935;32;20180;-37
2021/07/02 06:34:10;;;;;;;2.08;0.80;;;31.70;39.00;;;;;;4387676;32;20121;-38
2021/07/02 06:36:37;;;;;;;4.32;0.90;;;31.70;37.90;;;;;;4387505;32;20064;-37
2021/07/02 06:39:03;;;;;;;1.85;0.70;;;31.80;38.40;;;;;;4387181;32;20085;-38
2021/07/02 06:41:30;;;;;;;1.98;0.88;;;31.90;38.40;;;;;;4387030;32;20514;-38
2021/07/02 06:43:56;;;;;;;1.83;0.73;;;32.10;37.80;;;;;;4387377;32;20058;-38
2021/07/02 06:46:22;;;;;;;1.17;0.80;;;32.30;37.90;;;;;;4387646;32;20081;-38
2021/07/02 06:48:49;;;;;;;1.50;0.85;;;32.40;37.30;;;;;;4385826;32;20084;-38
2021/07/02 06:51:15;;;;;;;0.70;0.70;;;32.30;37.50;;;;;;4389502;32;20057;-37
2021/07/02 06:53:42;;;;;;;2.97;0.90;;;32.40;37.60;;;;;;4405089;32;20093;-39
2021/07/02 06:56:08;;;;;;;1.73;0.70;;;32.40;38.00;;;;;;4391214;32;20093;-38
2021/07/02 06:58:35;;;;;;;1.08;0.70;;;32.50;37.80;;;;;;4391298;32;20150;-38
2021/07/02 07:01:02;;;;;;;3.95;0.80;;;32.50;37.50;;;;;;4405692;32;20072;-38
2021/07/02 07:03:28;;;;;;;1.37;0.70;;;32.40;37.70;;;;;;4404788;32;20468;-37
2021/07/02 07:05:54;;;;;;;2.87;0.90;;;32.40;37.80;;;;;;4405092;32;20065;-37
2021/07/02 07:08:21;;;;;;;1.40;0.98;;;32.50;37.90;;;;;;4391120;32;20099;-37
2021/07/02 07:10:47;;;;;;;3.75;1.10;;;32.50;37.80;;;;;;4405269;32;20072;-37
2021/07/02 07:13:14;;;;;;;1.87;0.93;;;32.50;38.00;;;;;;4404959;32;20061;-38
2021/07/02 07:15:40;;;;;;;1.25;0.85;;;32.60;37.70;;;;;;4402053;32;20533;-38
2021/07/02 07:18:07;;;;;;;4.43;1.33;;;32.80;38.40;;;;;;4402387;32;20066;-38
2021/07/02 07:20:33;;;;;;;1.30;0.80;;;33.00;37.50;;;;;;4389769;32;20093;-39
2021/07/02 07:23:00;;;;;;;1.12;1.02;;;33.00;37.10;;;;;;4402381;32;20084;-39
2021/07/02 07:25:26;;;;;;;1.10;0.80;;;33.10;37.50;;;;;;4402539;32;20139;-37
2021/07/02 07:27:53;;;;;;;2.45;0.90;;;33.40;37.20;;;;;;4402033;32;20157;-37
2021/07/02 07:30:19;;;;;;;2.25;1.02;;;33.40;37.60;;;;;;4402737;32;20068;-38
2021/07/02 07:32:49;;;;;;;4.18;0.98;;;33.40;37.00;;;;;;4389720;32;20150;-38
2021/07/02 07:35:18;;;;;;;1.27;0.90;;;33.40;37.50;;;;;;4402173;32;20069;-38
2021/07/02 07:37:47;;;;;;;1.00;0.90;;;33.60;37.70;;;;;;4401832;32;20080;-40
2021/07/02 07:40:14;;;;;;;1.35;1.00;;;33.90;36.80;;;;;;4390053;32;20197;-40
2021/07/02 07:42:40;;;;;;;1.50;0.90;;;34.10;36.90;;;;;;4371372;32;20073;-39
2021/07/02 07:45:07;;;;;;;2.55;0.98;;;34.30;36.10;;;;;;4372231;32;20173;-40
2021/07/02 07:47:34;;;;;;;0.80;0.80;;;34.30;36.10;;;;;;4366876;32;20184;-38
2021/07/02 07:50:07;;;;;;;1.48;1.02;;;34.50;35.60;;;;;;4356767;32;20078;-38
2021/07/02 07:55:09;;;;;;;2.50;0.82;;;34.20;35.60;;;;;;4356976;32;20177;-39
2021/07/02 07:57:36;;;;;;;1.48;1.00;;;34.20;35.80;;;;;;4356750;32;20094;-38
2021/07/02 08:00:05;;;;;;;2.70;1.02;;;34.10;35.60;;;;;;4311986;33;20109;-38
2021/07/02 08:02:32;;;;;;;4.47;1.00;;;34.00;35.90;;;;;;4287702;33;20083;-37
2021/07/02 08:04:58;;;;;;;7.53;1.12;;;34.00;36.20;;;;;;4312432;33;20271;-39
2021/07/02 08:07:25;;;;;;;3.20;1.10;;;33.90;36.40;;;;;;4312610;33;20063;-38
2021/07/02 08:09:51;;;;;;;3.10;1.10;;;33.70;37.50;;;;;;4312173;33;20579;-37
2021/07/02 08:12:18;;;;;;;1.30;1.20;;;33.30;37.90;;;;;;4311787;33;20087;-38
2021/07/02 08:14:49;;;;;;;3.17;1.30;;;32.90;38.30;;;;;;4312172;33;20536;-40
2021/07/02 08:17:16;;;;;;;3.03;1.30;;;32.60;39.60;;;;;;4312246;33;20516;-38
2021/07/02 08:19:42;;;;;;;2.90;1.20;;;32.40;40.00;;;;;;4321695;33;20145;-39
2021/07/02 08:22:09;;;;;;;2.62;1.45;;;32.10;40.80;;;;;;4341489;33;20082;-39
2021/07/02 08:24:36;;;;;;;2.55;1.42;;;31.90;41.20;;;;;;4341060;33;20055;-39
2021/07/02 08:27:05;;;;;;;3.35;1.50;;;31.90;41.40;;;;;;4340914;33;20589;-39
2021/07/02 08:29:32;;;;;;;2.72;1.52;;;31.90;41.50;;;;;;4341669;33;20142;-39
2021/07/02 08:31:59;;;;;;;2.12;1.92;;;31.80;41.10;;;;;;4341440;33;20071;-39
2021/07/02 08:34:26;;;;;;;5.72;2.42;;;31.70;40.90;;;;;;4329330;33;20527;-38
2021/07/02 08:36:52;;;;;;;2.55;1.95;;;31.50;41.40;;;;;;4353113;32;20089;-39
2021/07/02 08:39:19;;;;;;;7.32;1.62;;;31.40;41.70;;;;;;4388711;32;20077;-42
2021/07/02 08:41:46;;;;;;;1.40;1.30;;;31.40;41.10;;;;;;4362001;32;20054;-44
2021/07/02 08:44:12;;;;;;;2.90;1.83;;;31.40;40.00;;;;;;4388120;32;20055;-38
2021/07/02 08:46:39;;;;;;;1.98;1.20;;;31.30;40.20;;;;;;4388567;32;20062;-38
2021/07/02 08:49:05;;;;;;;3.83;1.60;;;31.30;40.20;;;;;;4374693;32;20069;-39
2021/07/02 08:51:32;;;;;;;4.25;1.95;;;31.30;40.80;;;;;;4343287;32;20121;-38
2021/07/02 08:53:59;;;;;;;1.90;1.70;;;31.40;40.60;;;;;;4355811;32;20082;-39
2021/07/02 08:56:26;;;;;;;3.15;1.98;;;31.70;40.80;;;;;;4356096;32;20161;-38
2021/07/02 08:58:52;;;;;;;4.30;1.60;;;31.90;40.20;;;;;;4331374;32;20153;-38
2021/07/02 09:01:42;;;;;;;2.85;1.70;;;32.20;39.80;;;;;;4355772;32;20066;-38
2021/07/02 09:04:25;;;;;;;2.15;1.92;;;32.40;39.90;;;;;;4352161;32;20071;-37
2021/07/02 09:07:10;;;;;;;1.87;1.77;;;32.50;39.70;;;;;;4356002;32;20121;-39
2021/07/02 09:09:59;;;;;;;2.03;1.90;;;32.70;39.70;;;;;;4343388;32;20606;-36
2021/07/02 09:12:30;;;;;;;3.15;2.05;;;32.90;39.00;;;;;;4355969;32;20077;-40
2021/07/02 09:15:12;;;;;;;3.17;2.20;;;33.00;39.00;;;;;;4355859;32;20081;-39
2021/07/02 09:18:00;;;;;;;2.10;1.90;;;33.10;39.10;;;;;;4355656;32;20074;-39
2021/07/02 09:20:29;;;;;;;2.65;2.40;;;33.10;38.90;;;;;;4355643;32;20151;-39
2021/07/02 09:23:13;;;;;;;3.08;1.80;;;33.10;38.70;;;;;;4376906;32;20551;-40
2021/07/02 09:25:53;;;;;;;2.67;2.47;;;33.10;38.50;;;;;;4387762;32;20081;-37
2021/07/02 09:28:23;;;;;;;3.10;2.08;;;32.80;38.80;;;;;;4388264;32;20090;-38
2021/07/02 09:30:54;;;;;;;2.40;2.15;;;32.60;39.10;;;;;;4342939;32;20195;-38
2021/07/02 09:33:23;;;;;;;2.00;1.80;;;32.60;39.50;;;;;;4355615;32;20081;-38
2021/07/02 09:35:52;;;;;;;2.35;1.58;;;32.70;39.70;;;;;;4355444;32;20178;-37
2021/07/02 09:38:30;;;;;;;3.80;2.00;;;33.00;39.10;;;;;;4355248;32;20521;-40
2021/07/02 09:40:57;;;;;;;1.37;1.20;;;33.30;38.60;;;;;;4344468;32;20073;-39
2021/07/02 09:43:26;;;;;;;2.53;1.85;;;33.70;37.40;;;;;;4343179;32;20071;-38
2021/07/02 09:45:55;;;;;;;4.07;1.58;;;34.20;37.40;;;;;;4343492;32;20097;-39
2021/07/02 09:48:25;;;;;;;1.52;1.42;;;34.50;36.60;;;;;;4365136;32;20058;-38
2021/07/02 09:50:58;;;;;;;6.03;1.33;;;34.60;35.00;;;;;;4358495;32;20144;-38
2021/07/02 09:53:34;;;;;;;1.42;1.23;;;34.60;34.70;;;;;;4369865;32;20564;-39
2021/07/02 09:56:06;;;;;;;1.42;0.95;;;34.60;35.70;;;;;;4370597;32;20161;-38
2021/07/02 09:58:40;;;;;;;3.95;1.20;;;34.60;34.20;;;;;;4370214;32;20074;-38
2021/07/02 10:01:10;;;;;;;4.40;1.42;;;34.60;35.00;;;;;;4370127;32;20070;-38
2021/07/02 10:03:41;;;;;;;2.00;1.10;;;34.60;35.20;;;;;;4370206;32;20190;-38
2021/07/02 10:06:29;;;;;;;4.70;1.23;;;34.80;35.10;;;;;;4358012;32;20143;-37
2021/07/02 10:08:55;;;;;;;1.35;1.05;;;35.10;34.40;;;;;;4383197;32;20126;-38
2021/07/02 10:11:23;;;;;;;1.12;1.00;;;35.30;33.60;;;;;;4387377;32;20097;-40
2021/07/02 10:13:50;;;;;;;4.07;0.80;;;35.40;33.70;;;;;;4373945;32;20535;-39
2021/07/02 10:16:17;;;;;;;1.25;0.80;;;35.70;33.30;;;;;;4387909;32;20066;-39
2021/07/02 10:18:58;;;;;;;2.00;1.10;;;36.00;33.20;;;;;;4387240;32;20061;-40
2021/07/02 10:21:25;;;;;;;1.23;1.08;;;36.20;32.90;;;;;;4342242;32;20082;-38
2021/07/02 10:23:55;;;;;;;1.85;1.10;;;36.30;32.70;;;;;;4342858;32;20513;-39
2021/07/02 10:26:23;;;;;;;1.10;0.90;;;36.30;32.70;;;;;;4355845;32;20167;-38
2021/07/02 10:28:49;;;;;;;1.45;1.10;;;36.30;32.50;;;;;;4328190;33;20106;-38
2021/07/02 10:31:17;;;;;;;2.55;0.90;;;36.40;32.60;;;;;;4303814;33;20107;-39
2021/07/02 10:34:09;;;;;;;2.05;0.85;;;36.70;32.30;;;;;;4327878;33;20062;-40
2021/07/02 10:36:39;;;;;;;2.30;0.88;;;37.30;32.00;;;;;;4314426;33;20086;-38
2021/07/02 10:39:05;;;;;;;1.10;0.90;;;38.10;31.30;;;;;;4316558;33;20071;-38
2021/07/02 10:41:32;;;;;;;2.25;0.93;;;38.50;30.30;;;;;;4316396;33;20071;-39
2021/07/02 10:44:13;;;;;;;0.80;0.80;;;38.60;30.00;;;;;;4328265;33;20085;-45
2021/07/02 10:46:48;;;;;;;1.98;1.00;;;38.60;30.00;;;;;;4328551;33;20085;-38
2021/07/02 10:49:16;;;;;;;2.47;0.90;;;38.50;29.80;;;;;;4331178;33;20072;-38
2021/07/02 10:51:47;;;;;;;2.03;0.90;;;38.80;29.70;;;;;;4342696;33;20085;-40
2021/07/02 10:54:18;;;;;;;2.55;1.00;;;39.30;29.40;;;;;;4343113;33;20070;-39
2021/07/02 10:56:57;;;;;;;3.17;1.05;;;39.70;29.00;;;;;;4343106;33;20071;-39
2021/07/02 10:59:38;;;;;;;1.42;1.23;;;39.90;29.00;;;;;;4368532;32;20092;-38
2021/07/02 11:02:15;;;;;;;2.53;1.10;;;40.00;28.90;;;;;;4405475;32;20142;-39
2021/07/02 11:04:44;;;;;;;3.78;1.40;;;40.10;28.80;;;;;;4404866;32;20056;-38
2021/07/02 11:07:13;;;;;;;1.40;0.75;;;40.10;28.70;;;;;;4405479;32;20079;-38
2021/07/02 11:09:52;;;;;;;1.25;1.00;;;40.10;28.70;;;;;;4405061;32;20621;-39
2021/07/02 11:12:59;;;;;;;3.97;1.20;;;40.10;28.70;;;;;;4404825;32;20070;-38
2021/07/02 11:15:26;;;;;;;2.05;0.85;;;40.10;28.90;;;;;;4403414;32;20192;-39
2021/07/02 11:18:13;;;;;;;3.97;1.00;;;40.10;28.60;;;;;;4391011;32;20099;-38
2021/07/02 11:20:40;;;;;;;1.00;0.90;;;40.00;28.80;;;;;;4404775;32;20452;-38
2021/07/02 11:23:16;;;;;;;2.75;1.02;;;39.90;28.70;;;;;;4404985;32;20149;-37
2021/07/02 11:28:18;;;;;;;3.20;0.90;;;39.50;29.00;;;;;;4404617;32;20071;-38
2021/07/02 11:30:45;;;;;;;2.70;1.17;;;39.30;29.10;;;;;;4405038;32;20069;-39
2021/07/02 11:33:12;;;;;;;2.97;1.30;;;39.30;29.20;;;;;;4390745;32;20521;-40
2021/07/02 11:35:41;;;;;;;2.12;1.30;;;39.20;29.40;;;;;;4404268;32;20079;-39
2021/07/02 11:38:21;;;;;;;2.58;1.00;;;39.00;29.50;;;;;;4404511;32;20521;-38
2021/07/02 11:40:53;;;;;;;1.45;0.88;;;38.90;29.70;;;;;;4404497;32;20078;-38
2021/07/02 11:43:39;;;;;;;2.90;1.00;;;38.80;29.60;;;;;;4390602;32;20687;-39
2021/07/02 11:46:13;;;;;;;3.30;1.00;;;38.60;29.90;;;;;;4390857;32;20091;-37
2021/07/02 11:48:41;;;;;;;0.93;0.88;;;38.50;30.00;;;;;;4392624;32;20105;-38
2021/07/02 11:51:22;;;;;;;1.20;1.10;;;38.70;30.00;;;;;;4389249;32;20158;-38
2021/07/02 11:53:53;;;;;;;1.08;0.80;;;38.90;29.90;;;;;;4389479;32;20065;-39
2021/07/02 11:56:33;;;;;;;0.95;0.90;;;39.10;29.70;;;;;;4387870;32;20081;-38
2021/07/02 11:59:02;;;;;;;2.87;0.90;;;39.30;29.50;;;;;;4387762;32;20093;-38
2021/07/02 12:01:47;;;;;;;0.70;0.70;;;39.60;29.20;;;;;;4356647;32;20078;-39
2021/07/02 12:04:19;;;;;;;1.35;0.80;;;39.90;29.00;;;;;;4356641;32;20530;-38
2021/07/02 12:06:47;;;;;;;2.97;0.90;;;39.90;28.90;;;;;;4356290;32;20058;-39
2021/07/02 12:09:16;;;;;;;0.93;0.80;;;39.90;28.70;;;;;;4356090;32;20078;-38
2021/07/02 12:11:46;;;;;;;1.27;0.80;;;40.10;28.70;;;;;;4356116;32;20079;-39
2021/07/02 12:14:14;;;;;;;0.80;0.77;;;40.10;28.50;;;;;;4356778;32;20058;-38
2021/07/02 12:16:43;;;;;;;0.73;0.73;;;40.30;28.50;;;;;;4344255;32;20066;-39
2021/07/02 12:19:15;;;;;;;2.87;0.70;;;40.50;28.50;;;;;;4356278;32;20165;-39
2021/07/02 12:22:00;;;;;;;0.82;0.80;;;40.60;28.30;;;;;;4356555;32;20463;-39
2021/07/02 12:24:34;;;;;;;2.65;0.90;;;40.40;28.20;;;;;;4345075;32;20555;-39
2021/07/02 12:27:03;;;;;;;1.30;0.80;;;40.10;28.30;;;;;;4356254;32;20676;-39
2021/07/02 12:29:33;;;;;;;0.80;0.80;;;39.80;28.50;;;;;;4356227;32;20089;-38
2021/07/02 12:32:08;;;;;;;2.03;0.70;;;39.70;28.50;;;;;;4364825;32;20099;-38
2021/07/02 12:34:40;;;;;;;2.03;0.70;;;39.60;28.70;;;;;;4373715;32;20081;-39
2021/07/02 12:37:09;;;;;;;2.00;0.98;;;39.40;29.20;;;;;;4373508;32;20552;-39
2021/07/02 12:39:40;;;;;;;1.40;0.90;;;39.00;28.90;;;;;;4375455;32;20093;-41
2021/07/02 12:42:20;;;;;;;0.80;0.80;;;38.70;29.20;;;;;;4388637;32;20533;-38
2021/07/02 12:44:48;;;;;;;6.32;1.15;;;38.40;29.40;;;;;;4388672;32;20213;-38
2021/07/02 12:47:15;;;;;;;1.83;0.80;;;38.20;30.00;;;;;;4389187;32;20457;-38
2021/07/02 12:49:54;;;;;;;1.70;0.80;;;38.00;30.20;;;;;;4388969;32;20050;-38
2021/07/02 12:55:02;;;;;;;2.37;0.95;;;37.50;30.70;;;;;;4403807;32;20108;-38
2021/07/02 12:57:41;;;;;;;0.93;0.82;;;37.20;31.00;;;;;;4403352;32;20069;-38
2021/07/02 13:00:21;;;;;;;2.92;0.90;;;37.00;31.30;;;;;;4403672;32;20449;-39
2021/07/02 13:02:50;;;;;;;2.00;1.02;;;36.70;31.80;;;;;;4403431;32;20089;-39